Time,TemperatureF,DewpointF,PressureIn,WindDirection,WindDirectionDegrees,WindSpeedMPH,WindSpeedGustMPH,Humidity,HourlyPrecipIn,Conditions,Clouds,dailyrainin,SoftwareType,DateUTC
2013-07-15 00:00:00,46.5,50.0,29.84,SSE,158,0.0,0.0,1,0.00,,,0.00,WeatherCatV1.13B119,2013-07-15 07:00:00,
2013-07-15 00:05:00,46.4,50.0,29.84,SSE,158,0.0,0.0,1,0.00,,,0.00,WeatherCatV1.13B119,2013-07-15 07:05:00,
2013-07-15 00:10:00,46.4,50.0,29.84,SSE,158,0.0,0.0,1,0.00,,,0.00,WeatherCatV1.13B119,2013-07-15 07:10:00,
2013-07-15 00:15:00,46.4,50.0,29.84,SSE,158,0.0,0.0,1,0.00,,,0.00,WeatherCatV1.13B119,2013-07-15 07:15:00,
2013-07-15 00:20:00,46.3,50.0,29.84,SSE,158,0.0,0.0,1,0.00,,,0.00,WeatherCatV1.13B119,2013-07-15 07:20:00,
2013-07-15 00:25:00,46.3,50.0,29.84,SSE,158,0.0,0.0,1,0.00,,,0.00,WeatherCatV1.13B119,2013-07-15 07:25:00,
2013-07-15 00:30:00,46.3,50.0,29.84,SSE,158,0.0,0.0,1,0.00,,,0.00,WeatherCatV1.13B119,2013-07-15 07:30:00,
2013-07-15 00:35:00,46.3,50.0,29.84,SSE,158,0.0,0.0,1,0.00,,,0.00,WeatherCatV1.13B119,2013-07-15 07:35:00,
2013-07-15 00:40:00,46.3,50.0,29.84,SSE,158,0.0,0.0,1,0.00,,,0.00,WeatherCatV1.13B119,2013-07-15 07:40:00,
2013-07-15 00:45:00,46.3,50.0,29.84,SSE,158,0.0,0.0,1,0.00,,,0.00,WeatherCatV1.13B119,2013-07-15 07:45:00,
2013-07-15 00:50:00,46.0,50.0,29.84,East,90,1.0,5.0,1,0.00,,,0.00,WeatherCatV1.13B119,2013-07-15 07:50:00,
2013-07-15 00:55:00,46.0,50.0,29.84,East,90,1.0,5.0,1,0.00,,,0.00,WeatherCatV1.13B119,2013-07-15 07:55:00,
2013-07-15 01:00:00,46.0,50.0,29.84,East,90,1.0,5.0,1,0.00,,,0.00,WeatherCatV1.13B119,2013-07-15 08:00:00,
2013-07-15 01:05:00,45.8,50.0,29.84,ENE,68,2.0,10.0,1,0.00,,,0.00,WeatherCatV1.13B119,2013-07-15 08:05:00,
2013-07-15 01:10:00,45.8,50.0,29.84,ENE,68,2.0,10.0,1,0.00,,,0.00,WeatherCatV1.13B119,2013-07-15 08:10:00,
2013-07-15 01:15:00,45.8,50.0,29.84,ENE,68,2.0,10.0,1,0.00,,,0.00,WeatherCatV1.13B119,2013-07-15 08:15:00,
2013-07-15 01:20:00,45.9,50.0,29.83,ESE,112,0.0,4.0,1,0.00,,,0.00,WeatherCatV1.13B119,2013-07-15 08:20:00,
2013-07-15 01:25:00,45.9,50.0,29.83,ESE,112,0.0,4.0,1,0.00,,,0.00,WeatherCatV1.13B119,2013-07-15 08:25:00,
2013-07-15 01:30:00,45.9,50.0,29.83,ESE,112,0.0,4.0,1,0.00,,,0.00,WeatherCatV1.13B119,2013-07-15 08:30:00,
2013-07-15 01:35:00,45.7,50.0,29.83,East,90,1.0,6.0,1,0.00,,,0.00,WeatherCatV1.13B119,2013-07-15 08:35:00,
2013-07-15 01:40:00,45.7,50.0,29.83,East,90,1.0,6.0,1,0.00,,,0.00,WeatherCatV1.13B119,2013-07-15 08:40:00,
2013-07-15 01:45:00,45.7,50.0,29.83,East,90,1.0,6.0,1,0.00,,,0.00,WeatherCatV1.13B119,2013-07-15 08:45:00,
2013-07-15 01:50:00,45.6,50.0,29.83,ESE,112,1.0,4.0,1,0.00,,,0.00,WeatherCatV1.13B119,2013-07-15 08:50:00,
2013-07-15 01:55:00,45.6,50.0,29.83,ESE,112,1.0,4.0,1,0.00,,,0.00,WeatherCatV1.13B119,2013-07-15 08:55:00,
2013-07-15 02:00:00,45.6,50.0,29.83,ESE,112,1.0,4.0,1,0.00,,,0.00,WeatherCatV1.13B119,2013-07-15 09:00:00,
2013-07-15 02:05:00,45.7,50.0,29.83,ESE,112,0.0,3.0,1,0.00,,,0.00,WeatherCatV1.13B119,2013-07-15 09:05:00,
2013-07-15 02:10:00,45.7,50.0,29.83,ESE,112,0.0,3.0,1,0.00,,,0.00,WeatherCatV1.13B119,2013-07-15 09:10:00,
2013-07-15 02:15:00,45.7,50.0,29.83,ESE,112,0.0,3.0,1,0.00,,,0.00,WeatherCatV1.13B119,2013-07-15 09:15:00,
2013-07-15 02:20:00,45.4,50.0,29.83,East,90,2.0,7.0,1,0.00,,,0.00,WeatherCatV1.13B119,2013-07-15 09:20:00,
2013-07-15 02:25:00,45.4,50.0,29.83,East,90,2.0,7.0,1,0.00,,,0.00,WeatherCatV1.13B119,2013-07-15 09:25:00,
2013-07-15 02:30:00,45.4,50.0,29.83,East,90,2.0,7.0,1,0.00,,,0.00,WeatherCatV1.13B119,2013-07-15 09:30:00,
2013-07-15 02:35:00,45.4,50.0,29.83,East,90,1.0,7.0,1,0.00,,,0.00,WeatherCatV1.13B119,2013-07-15 09:35:00,
2013-07-15 02:40:00,45.4,50.0,29.83,East,90,1.0,7.0,1,0.00,,,0.00,WeatherCatV1.13B119,2013-07-15 09:40:00,
2013-07-15 02:45:00,45.4,50.0,29.83,East,90,1.0,7.0,1,0.00,,,0.00,WeatherCatV1.13B119,2013-07-15 09:45:00,
2013-07-15 02:50:00,45.3,50.0,29.82,ENE,68,1.0,7.0,1,0.00,,,0.00,WeatherCatV1.13B119,2013-07-15 09:50:00,
2013-07-15 02:55:00,45.3,50.0,29.82,ENE,68,1.0,7.0,1,0.00,,,0.00,WeatherCatV1.13B119,2013-07-15 09:55:00,
2013-07-15 03:00:00,45.3,50.0,29.82,ENE,68,1.0,7.0,1,0.00,,,0.00,WeatherCatV1.13B119,2013-07-15 10:00:00,
2013-07-15 03:05:00,45.5,50.0,29.82,ENE,68,0.0,0.0,1,0.00,,,0.00,WeatherCatV1.13B119,2013-07-15 10:05:00,
2013-07-15 03:10:00,45.5,50.0,29.82,ENE,68,0.0,0.0,1,0.00,,,0.00,WeatherCatV1.13B119,2013-07-15 10:10:00,
2013-07-15 03:15:00,45.5,50.0,29.82,ENE,68,0.0,0.0,1,0.00,,,0.00,WeatherCatV1.13B119,2013-07-15 10:15:00,
2013-07-15 03:20:00,45.3,50.0,29.82,East,90,1.0,5.0,1,0.00,,,0.00,WeatherCatV1.13B119,2013-07-15 10:20:00,
2013-07-15 03:25:00,45.3,50.0,29.82,East,90,1.0,5.0,1,0.00,,,0.00,WeatherCatV1.13B119,2013-07-15 10:25:00,
2013-07-15 03:30:00,45.3,50.0,29.82,East,90,1.0,5.0,1,0.00,,,0.00,WeatherCatV1.13B119,2013-07-15 10:30:00,
2013-07-15 03:35:00,45.3,50.0,29.82,East,90,1.0,6.0,1,0.00,,,0.00,WeatherCatV1.13B119,2013-07-15 10:35:00,
2013-07-15 03:40:00,45.3,50.0,29.82,East,90,1.0,6.0,1,0.00,,,0.00,WeatherCatV1.13B119,2013-07-15 10:40:00,
2013-07-15 03:45:00,45.3,50.0,29.82,East,90,1.0,6.0,1,0.00,,,0.00,WeatherCatV1.13B119,2013-07-15 10:45:00,
2013-07-15 03:50:00,45.3,50.0,29.82,East,90,2.0,6.0,1,0.00,,,0.00,WeatherCatV1.13B119,2013-07-15 10:50:00,
2013-07-15 03:55:00,45.3,50.0,29.82,East,90,2.0,6.0,1,0.00,,,0.00,WeatherCatV1.13B119,2013-07-15 10:55:00,
2013-07-15 04:00:00,45.3,50.0,29.82,East,90,2.0,6.0,1,0.00,,,0.00,WeatherCatV1.13B119,2013-07-15 11:00:00,
2013-07-15 04:05:00,45.3,50.0,29.82,ESE,112,1.0,7.0,1,0.00,,,0.00,WeatherCatV1.13B119,2013-07-15 11:05:00,
2013-07-15 04:10:00,45.3,50.0,29.82,ESE,112,1.0,7.0,1,0.00,,,0.00,WeatherCatV1.13B119,2013-07-15 11:10:00,
2013-07-15 04:15:00,45.3,50.0,29.82,ESE,112,1.0,7.0,1,0.00,,,0.00,WeatherCatV1.13B119,2013-07-15 11:15:00,
2013-07-15 04:20:00,45.3,50.0,29.82,ESE,112,1.0,7.0,1,0.00,,,0.00,WeatherCatV1.13B119,2013-07-15 11:20:00,
2013-07-15 04:25:00,45.2,50.0,29.82,ESE,112,2.0,5.0,1,0.00,,,0.00,WeatherCatV1.13B119,2013-07-15 11:25:00,
2013-07-15 04:30:00,45.2,50.0,29.82,ESE,112,2.0,5.0,1,0.00,,,0.00,WeatherCatV1.13B119,2013-07-15 11:30:00,
2013-07-15 04:35:00,45.2,50.0,29.82,ESE,112,2.0,5.0,1,0.00,,,0.00,WeatherCatV1.13B119,2013-07-15 11:35:00,
2013-07-15 04:40:00,44.8,50.0,29.81,ENE,68,3.0,10.0,1,0.00,,,0.00,WeatherCatV1.13B119,2013-07-15 11:40:00,
2013-07-15 04:45:00,44.8,50.0,29.81,ENE,68,3.0,10.0,1,0.00,,,0.00,WeatherCatV1.13B119,2013-07-15 11:45:00,
2013-07-15 04:50:00,44.8,50.0,29.81,ENE,68,3.0,10.0,1,0.00,,,0.00,WeatherCatV1.13B119,2013-07-15 11:50:00,
2013-07-15 04:55:00,44.4,50.0,29.81,ESE,112,2.0,7.0,1,0.00,,,0.00,WeatherCatV1.13B119,2013-07-15 11:55:00,
2013-07-15 05:00:00,44.4,50.0,29.81,ESE,112,2.0,7.0,1,0.00,,,0.00,WeatherCatV1.13B119,2013-07-15 12:00:00,
2013-07-15 05:05:00,44.3,50.0,29.81,East,90,2.0,9.0,1,0.00,,,0.00,WeatherCatV1.13B119,2013-07-15 12:05:00,
2013-07-15 05:10:00,44.3,50.0,29.81,East,90,2.0,9.0,1,0.00,,,0.00,WeatherCatV1.13B119,2013-07-15 12:10:00,
2013-07-15 05:15:00,44.3,50.0,29.81,East,90,2.0,9.0,1,0.00,,,0.00,WeatherCatV1.13B119,2013-07-15 12:15:00,
2013-07-15 05:20:00,44.4,50.0,29.82,ENE,68,2.0,8.0,1,0.00,,,0.00,WeatherCatV1.13B119,2013-07-15 12:20:00,
2013-07-15 05:25:00,44.4,50.0,29.82,ENE,68,2.0,8.0,1,0.00,,,0.00,WeatherCatV1.13B119,2013-07-15 12:25:00,
2013-07-15 05:30:00,44.4,50.0,29.82,ENE,68,2.0,8.0,1,0.00,,,0.00,WeatherCatV1.13B119,2013-07-15 12:30:00,
2013-07-15 05:35:00,44.4,50.0,29.82,NE,45,3.0,9.0,1,0.00,,,0.00,WeatherCatV1.13B119,2013-07-15 12:35:00,
2013-07-15 05:40:00,44.4,50.0,29.82,NE,45,3.0,9.0,1,0.00,,,0.00,WeatherCatV1.13B119,2013-07-15 12:40:00,
2013-07-15 05:45:00,44.4,50.0,29.82,NE,45,3.0,9.0,1,0.00,,,0.00,WeatherCatV1.13B119,2013-07-15 12:45:00,
2013-07-15 05:50:00,44.5,50.0,29.82,ENE,68,1.0,5.0,1,0.00,,,0.00,WeatherCatV1.13B119,2013-07-15 12:50:00,
2013-07-15 05:55:00,44.5,50.0,29.82,ENE,68,1.0,5.0,1,0.00,,,0.00,WeatherCatV1.13B119,2013-07-15 12:55:00,
2013-07-15 06:00:00,44.5,50.0,29.82,ENE,68,1.0,5.0,1,0.00,,,0.00,WeatherCatV1.13B119,2013-07-15 13:00:00,
2013-07-15 06:05:00,44.7,50.0,29.82,East,90,2.0,4.0,1,0.00,,,0.00,WeatherCatV1.13B119,2013-07-15 13:05:00,
2013-07-15 06:10:00,44.7,50.0,29.82,East,90,2.0,4.0,1,0.00,,,0.00,WeatherCatV1.13B119,2013-07-15 13:10:00,
2013-07-15 06:15:00,44.7,50.0,29.82,East,90,2.0,4.0,1,0.00,,,0.00,WeatherCatV1.13B119,2013-07-15 13:15:00,
2013-07-15 06:20:00,44.6,50.0,29.82,NE,45,3.0,8.0,1,0.00,,,0.00,WeatherCatV1.13B119,2013-07-15 13:20:00,
2013-07-15 06:25:00,44.6,50.0,29.82,NE,45,3.0,8.0,1,0.00,,,0.00,WeatherCatV1.13B119,2013-07-15 13:25:00,
2013-07-15 06:30:00,44.6,50.0,29.82,NE,45,3.0,8.0,1,0.00,,,0.00,WeatherCatV1.13B119,2013-07-15 13:30:00,
2013-07-15 06:35:00,44.7,50.0,29.83,NE,45,3.0,9.0,1,0.00,,,0.00,WeatherCatV1.13B119,2013-07-15 13:35:00,
2013-07-15 06:40:00,44.7,50.0,29.83,NE,45,3.0,9.0,1,0.00,,,0.00,WeatherCatV1.13B119,2013-07-15 13:40:00,
2013-07-15 06:45:00,44.7,50.0,29.83,NE,45,3.0,9.0,1,0.00,,,0.00,WeatherCatV1.13B119,2013-07-15 13:45:00,
2013-07-15 06:50:00,44.9,50.0,29.83,NE,45,3.0,9.0,1,0.00,,,0.00,WeatherCatV1.13B119,2013-07-15 13:50:00,
2013-07-15 06:55:00,44.9,50.0,29.83,NE,45,3.0,9.0,1,0.00,,,0.00,WeatherCatV1.13B119,2013-07-15 13:55:00,
2013-07-15 07:00:00,44.9,50.0,29.83,NE,45,3.0,9.0,1,0.00,,,0.00,WeatherCatV1.13B119,2013-07-15 14:00:00,
2013-07-15 07:05:00,45.1,50.0,29.83,ESE,112,3.0,9.0,1,0.00,,,0.00,WeatherCatV1.13B119,2013-07-15 14:05:00,
2013-07-15 07:10:00,45.1,50.0,29.83,ESE,112,3.0,9.0,1,0.00,,,0.00,WeatherCatV1.13B119,2013-07-15 14:10:00,
2013-07-15 07:15:00,45.1,50.0,29.83,ESE,112,3.0,9.0,1,0.00,,,0.00,WeatherCatV1.13B119,2013-07-15 14:15:00,
2013-07-15 07:20:00,45.2,50.0,29.84,NE,45,2.0,6.0,1,0.00,,,0.00,WeatherCatV1.13B119,2013-07-15 14:20:00,
2013-07-15 07:25:00,45.2,50.0,29.84,NE,45,2.0,6.0,1,0.00,,,0.00,WeatherCatV1.13B119,2013-07-15 14:25:00,
2013-07-15 07:30:00,45.2,50.0,29.84,NE,45,2.0,6.0,1,0.00,,,0.00,WeatherCatV1.13B119,2013-07-15 14:30:00,
2013-07-15 07:35:00,45.5,50.0,29.84,East,90,2.0,7.0,1,0.00,,,0.00,WeatherCatV1.13B119,2013-07-15 14:35:00,
2013-07-15 07:40:00,45.5,50.0,29.84,East,90,2.0,7.0,1,0.00,,,0.00,WeatherCatV1.13B119,2013-07-15 14:40:00,
2013-07-15 07:45:00,45.5,50.0,29.84,East,90,2.0,7.0,1,0.00,,,0.00,WeatherCatV1.13B119,2013-07-15 14:45:00,
2013-07-15 07:50:00,45.6,50.0,29.84,NE,45,3.0,7.0,1,0.00,,,0.00,WeatherCatV1.13B119,2013-07-15 14:50:00,
2013-07-15 07:55:00,45.6,50.0,29.84,NE,45,3.0,7.0,1,0.00,,,0.00,WeatherCatV1.13B119,2013-07-15 14:55:00,
2013-07-15 08:00:00,45.6,50.0,29.84,NE,45,3.0,7.0,1,0.00,,,0.00,WeatherCatV1.13B119,2013-07-15 15:00:00,
2013-07-15 08:05:00,45.9,50.0,29.84,NE,45,3.0,11.0,1,0.00,,,0.00,WeatherCatV1.13B119,2013-07-15 15:05:00,
2013-07-15 08:10:00,45.9,50.0,29.84,NE,45,3.0,11.0,1,0.00,,,0.00,WeatherCatV1.13B119,2013-07-15 15:10:00,
2013-07-15 08:15:00,45.9,50.0,29.84,NE,45,3.0,11.0,1,0.00,,,0.00,WeatherCatV1.13B119,2013-07-15 15:15:00,
2013-07-15 08:20:00,46.0,50.0,29.85,NE,45,3.0,7.0,1,0.00,,,0.00,WeatherCatV1.13B119,2013-07-15 15:20:00,
2013-07-15 08:25:00,46.0,50.0,29.85,NE,45,3.0,7.0,1,0.00,,,0.00,WeatherCatV1.13B119,2013-07-15 15:25:00,
2013-07-15 08:30:00,46.0,50.0,29.85,NE,45,3.0,7.0,1,0.00,,,0.00,WeatherCatV1.13B119,2013-07-15 15:30:00,
2013-07-15 08:35:00,46.5,50.0,29.85,NE,45,3.0,7.0,1,0.00,,,0.00,WeatherCatV1.13B119,2013-07-15 15:35:00,
2013-07-15 08:40:00,46.5,50.0,29.85,NE,45,3.0,7.0,1,0.00,,,0.00,WeatherCatV1.13B119,2013-07-15 15:40:00,
2013-07-15 08:45:00,46.5,50.0,29.85,NE,45,3.0,7.0,1,0.00,,,0.00,WeatherCatV1.13B119,2013-07-15 15:45:00,
2013-07-15 08:50:00,46.7,50.0,29.85,NE,45,3.0,10.0,1,0.00,,,0.00,WeatherCatV1.13B119,2013-07-15 15:50:00,
2013-07-15 08:55:00,46.7,50.0,29.85,NE,45,3.0,10.0,1,0.00,,,0.00,WeatherCatV1.13B119,2013-07-15 15:55:00,
2013-07-15 09:00:00,46.7,50.0,29.85,NE,45,3.0,10.0,1,0.00,,,0.00,WeatherCatV1.13B119,2013-07-15 16:00:00,
2013-07-15 09:05:00,47.0,50.0,29.85,NE,45,2.0,9.0,1,0.00,,,0.00,WeatherCatV1.13B119,2013-07-15 16:05:00,
2013-07-15 09:10:00,47.0,50.0,29.85,NE,45,2.0,9.0,1,0.00,,,0.00,WeatherCatV1.13B119,2013-07-15 16:10:00,
2013-07-15 09:15:00,47.0,50.0,29.85,NE,45,2.0,9.0,1,0.00,,,0.00,WeatherCatV1.13B119,2013-07-15 16:15:00,
2013-07-15 09:20:00,47.1,50.0,29.85,NE,45,4.0,12.0,1,0.00,,,0.00,WeatherCatV1.13B119,2013-07-15 16:20:00,
2013-07-15 09:25:00,47.1,50.0,29.85,NE,45,4.0,12.0,1,0.00,,,0.00,WeatherCatV1.13B119,2013-07-15 16:25:00,
2013-07-15 09:30:00,47.1,50.0,29.85,NE,45,4.0,12.0,1,0.00,,,0.00,WeatherCatV1.13B119,2013-07-15 16:30:00,
2013-07-15 09:35:00,47.6,50.0,29.85,NE,45,3.0,10.0,1,0.00,,,0.00,WeatherCatV1.13B119,2013-07-15 16:35:00,
2013-07-15 09:40:00,47.6,50.0,29.85,NE,45,3.0,10.0,1,0.00,,,0.00,WeatherCatV1.13B119,2013-07-15 16:40:00,
2013-07-15 09:45:00,47.6,50.0,29.85,NE,45,3.0,10.0,1,0.00,,,0.00,WeatherCatV1.13B119,2013-07-15 16:45:00,
2013-07-15 09:50:00,47.9,50.0,29.85,NE,45,2.0,7.0,1,0.00,,,0.00,WeatherCatV1.13B119,2013-07-15 16:50:00,
2013-07-15 09:55:00,47.9,50.0,29.85,NE,45,2.0,7.0,1,0.00,,,0.00,WeatherCatV1.13B119,2013-07-15 16:55:00,
2013-07-15 10:00:00,47.9,50.0,29.85,NE,45,2.0,7.0,1,0.00,,,0.00,WeatherCatV1.13B119,2013-07-15 17:00:00,
2013-07-15 10:05:00,48.3,50.0,29.85,NE,45,4.0,8.0,1,0.00,,,0.00,WeatherCatV1.13B119,2013-07-15 17:05:00,
2013-07-15 10:10:00,48.3,50.0,29.85,NE,45,4.0,8.0,1,0.00,,,0.00,WeatherCatV1.13B119,2013-07-15 17:10:00,
2013-07-15 10:15:00,48.3,50.0,29.85,NE,45,4.0,8.0,1,0.00,,,0.00,WeatherCatV1.13B119,2013-07-15 17:15:00,
2013-07-15 10:20:00,48.7,50.0,29.85,NE,45,4.0,9.0,1,0.00,,,0.00,WeatherCatV1.13B119,2013-07-15 17:20:00,
2013-07-15 10:25:00,48.7,50.0,29.85,NE,45,4.0,9.0,1,0.00,,,0.00,WeatherCatV1.13B119,2013-07-15 17:25:00,
2013-07-15 10:30:00,48.7,50.0,29.85,NE,45,4.0,9.0,1,0.00,,,0.00,WeatherCatV1.13B119,2013-07-15 17:30:00,
2013-07-15 10:35:00,49.1,50.0,29.86,ESE,112,3.0,10.0,1,0.00,,,0.00,WeatherCatV1.13B119,2013-07-15 17:35:00,
2013-07-15 10:40:00,49.1,50.0,29.86,ESE,112,3.0,10.0,1,0.00,,,0.00,WeatherCatV1.13B119,2013-07-15 17:40:00,
2013-07-15 10:45:00,49.1,50.0,29.86,ESE,112,3.0,10.0,1,0.00,,,0.00,WeatherCatV1.13B119,2013-07-15 17:45:00,
2013-07-15 10:50:00,49.1,50.0,29.85,NE,45,3.0,9.0,1,0.00,,,0.00,WeatherCatV1.13B119,2013-07-15 17:50:00,
2013-07-15 10:55:00,49.1,50.0,29.85,NE,45,3.0,9.0,1,0.00,,,0.00,WeatherCatV1.13B119,2013-07-15 17:55:00,
2013-07-15 11:00:00,49.1,50.0,29.85,NE,45,3.0,9.0,1,0.00,,,0.00,WeatherCatV1.13B119,2013-07-15 18:00:00,
2013-07-15 11:05:00,49.5,50.0,29.85,NE,45,4.0,9.0,1,0.00,,,0.00,WeatherCatV1.13B119,2013-07-15 18:05:00,
2013-07-15 11:10:00,49.5,50.0,29.85,NE,45,4.0,9.0,1,0.00,,,0.00,WeatherCatV1.13B119,2013-07-15 18:10:00,
2013-07-15 11:15:00,49.5,50.0,29.85,NE,45,4.0,9.0,1,0.00,,,0.00,WeatherCatV1.13B119,2013-07-15 18:15:00,
2013-07-15 11:20:00,49.8,50.0,29.85,East,90,2.0,7.0,1,0.00,,,0.00,WeatherCatV1.13B119,2013-07-15 18:20:00,
2013-07-15 11:25:00,49.8,50.0,29.85,East,90,2.0,7.0,1,0.00,,,0.00,WeatherCatV1.13B119,2013-07-15 18:25:00,
2013-07-15 11:30:00,49.8,50.0,29.85,East,90,2.0,7.0,1,0.00,,,0.00,WeatherCatV1.13B119,2013-07-15 18:30:00,
2013-07-15 11:35:00,50.4,50.0,29.85,East,90,3.0,7.0,1,0.00,,,0.00,WeatherCatV1.13B119,2013-07-15 18:35:00,
2013-07-15 11:40:00,50.4,50.0,29.85,East,90,3.0,7.0,1,0.00,,,0.00,WeatherCatV1.13B119,2013-07-15 18:40:00,
2013-07-15 11:45:00,50.4,50.0,29.85,East,90,3.0,7.0,1,0.00,,,0.00,WeatherCatV1.13B119,2013-07-15 18:45:00,
2013-07-15 11:50:00,50.7,50.0,29.85,NE,45,3.0,10.0,1,0.00,,,0.00,WeatherCatV1.13B119,2013-07-15 18:50:00,
2013-07-15 11:55:00,50.7,50.0,29.85,NE,45,3.0,10.0,1,0.00,,,0.00,WeatherCatV1.13B119,2013-07-15 18:55:00,
2013-07-15 12:00:00,50.7,50.0,29.85,NE,45,3.0,10.0,1,0.00,,,0.00,WeatherCatV1.13B119,2013-07-15 19:00:00,
2013-07-15 12:05:00,51.5,50.0,29.85,NE,45,4.0,10.0,1,0.00,,,0.00,WeatherCatV1.13B119,2013-07-15 19:05:00,
2013-07-15 12:10:00,51.5,50.0,29.85,NE,45,4.0,10.0,1,0.00,,,0.00,WeatherCatV1.13B119,2013-07-15 19:10:00,
2013-07-15 12:15:00,51.5,50.0,29.85,NE,45,4.0,10.0,1,0.00,,,0.00,WeatherCatV1.13B119,2013-07-15 19:15:00,
2013-07-15 12:20:00,52.8,50.0,29.85,ENE,68,4.0,11.0,1,0.00,,,0.00,WeatherCatV1.13B119,2013-07-15 19:20:00,
2013-07-15 12:25:00,52.8,50.0,29.85,ENE,68,4.0,11.0,1,0.00,,,0.00,WeatherCatV1.13B119,2013-07-15 19:25:00,
2013-07-15 12:30:00,52.8,50.0,29.85,ENE,68,4.0,11.0,1,0.00,,,0.00,WeatherCatV1.13B119,2013-07-15 19:30:00,
2013-07-15 12:35:00,58.9,21.2,29.84,NE,45,5.0,10.0,23,0.00,,,0.00,WeatherCatV1.13B119,2013-07-15 19:35:00,
2013-07-15 12:40:00,58.9,21.2,29.84,NE,45,5.0,10.0,23,0.00,,,0.00,WeatherCatV1.13B119,2013-07-15 19:40:00,
2013-07-15 12:45:00,58.9,21.2,29.84,NE,45,5.0,10.0,23,0.00,,,0.00,WeatherCatV1.13B119,2013-07-15 19:45:00,
2013-07-15 12:50:00,60.8,51.0,29.83,NNE,22,4.0,9.0,70,0.00,,,0.00,WeatherCatV1.13B119,2013-07-15 19:50:00,
2013-07-15 12:55:00,60.8,51.0,29.83,NNE,22,4.0,9.0,70,0.00,,,0.00,WeatherCatV1.13B119,2013-07-15 19:55:00,
2013-07-15 13:00:00,60.8,51.0,29.83,NNE,22,4.0,9.0,70,0.00,,,0.00,WeatherCatV1.13B119,2013-07-15 20:00:00,
2013-07-15 13:05:00,61.3,52.9,29.83,NE,45,5.0,12.0,74,0.00,,,0.00,WeatherCatV1.13B119,2013-07-15 20:05:00,
2013-07-15 13:10:00,61.3,52.9,29.83,NE,45,5.0,12.0,74,0.00,,,0.00,WeatherCatV1.13B119,2013-07-15 20:10:00,
2013-07-15 13:15:00,61.3,52.9,29.83,NE,45,5.0,12.0,74,0.00,,,0.00,WeatherCatV1.13B119,2013-07-15 20:15:00,
2013-07-15 13:20:00,59.5,50.1,29.83,ENE,68,7.0,13.0,71,0.00,,,0.00,WeatherCatV1.13B119,2013-07-15 20:20:00,
2013-07-15 13:25:00,59.5,50.1,29.83,ENE,68,7.0,13.0,71,0.00,,,0.00,WeatherCatV1.13B119,2013-07-15 20:25:00,
2013-07-15 13:30:00,59.5,50.1,29.83,ENE,68,7.0,13.0,71,0.00,,,0.00,WeatherCatV1.13B119,2013-07-15 20:30:00,
2013-07-15 13:35:00,61.1,52.4,29.83,NE,45,7.0,13.0,73,0.00,,,0.00,WeatherCatV1.13B119,2013-07-15 20:35:00,
2013-07-15 13:40:00,61.1,52.4,29.83,NE,45,7.0,13.0,73,0.00,,,0.00,WeatherCatV1.13B119,2013-07-15 20:40:00,
2013-07-15 13:45:00,61.1,52.4,29.83,NE,45,7.0,13.0,73,0.00,,,0.00,WeatherCatV1.13B119,2013-07-15 20:45:00,
2013-07-15 13:50:00,60.9,52.6,29.83,NE,45,7.0,14.0,74,0.00,,,0.00,WeatherCatV1.13B119,2013-07-15 20:50:00,
2013-07-15 13:55:00,60.9,52.6,29.83,NE,45,7.0,14.0,74,0.00,,,0.00,WeatherCatV1.13B119,2013-07-15 20:55:00,
2013-07-15 14:00:00,60.9,52.6,29.83,NE,45,7.0,14.0,74,0.00,,,0.00,WeatherCatV1.13B119,2013-07-15 21:00:00,
2013-07-15 14:05:00,60.3,51.6,29.82,NE,45,8.0,14.0,73,0.00,,,0.00,WeatherCatV1.13B119,2013-07-15 21:05:00,
2013-07-15 14:10:00,60.3,51.6,29.82,NE,45,8.0,14.0,73,0.00,,,0.00,WeatherCatV1.13B119,2013-07-15 21:10:00,
2013-07-15 14:15:00,60.3,51.6,29.82,NE,45,8.0,14.0,73,0.00,,,0.00,WeatherCatV1.13B119,2013-07-15 21:15:00,
2013-07-15 14:20:00,60.4,52.1,29.82,NE,45,8.0,14.0,74,0.00,,,0.00,WeatherCatV1.13B119,2013-07-15 21:20:00,
2013-07-15 14:25:00,60.4,52.1,29.82,NE,45,8.0,14.0,74,0.00,,,0.00,WeatherCatV1.13B119,2013-07-15 21:25:00,
2013-07-15 14:30:00,60.4,52.1,29.82,NE,45,8.0,14.0,74,0.00,,,0.00,WeatherCatV1.13B119,2013-07-15 21:30:00,
2013-07-15 14:35:00,61.1,52.8,29.82,NE,45,8.0,13.0,74,0.00,,,0.00,WeatherCatV1.13B119,2013-07-15 21:35:00,
2013-07-15 14:40:00,61.1,52.8,29.82,NE,45,8.0,13.0,74,0.00,,,0.00,WeatherCatV1.13B119,2013-07-15 21:40:00,
2013-07-15 14:45:00,61.1,52.8,29.82,NE,45,8.0,13.0,74,0.00,,,0.00,WeatherCatV1.13B119,2013-07-15 21:45:00,
2013-07-15 14:50:00,60.6,52.3,29.82,NE,45,8.0,16.0,74,0.00,,,0.00,WeatherCatV1.13B119,2013-07-15 21:50:00,
2013-07-15 14:55:00,60.6,52.3,29.82,NE,45,8.0,16.0,74,0.00,,,0.00,WeatherCatV1.13B119,2013-07-15 21:55:00,
2013-07-15 15:00:00,60.6,52.3,29.82,NE,45,8.0,16.0,74,0.00,,,0.00,WeatherCatV1.13B119,2013-07-15 22:00:00,
2013-07-15 15:05:00,61.5,53.1,29.81,NE,45,7.0,15.0,74,0.00,,,0.00,WeatherCatV1.13B119,2013-07-15 22:05:00,
2013-07-15 15:10:00,61.5,53.1,29.81,NE,45,7.0,15.0,74,0.00,,,0.00,WeatherCatV1.13B119,2013-07-15 22:10:00,
2013-07-15 15:15:00,61.5,53.1,29.81,NE,45,7.0,15.0,74,0.00,,,0.00,WeatherCatV1.13B119,2013-07-15 22:15:00,
2013-07-15 15:20:00,60.8,52.4,29.81,NE,45,7.0,15.0,74,0.00,,,0.00,WeatherCatV1.13B119,2013-07-15 22:20:00,
2013-07-15 15:25:00,60.8,52.4,29.81,NE,45,7.0,15.0,74,0.00,,,0.00,WeatherCatV1.13B119,2013-07-15 22:25:00,
2013-07-15 15:30:00,60.8,52.4,29.81,NE,45,7.0,15.0,74,0.00,,,0.00,WeatherCatV1.13B119,2013-07-15 22:30:00,
2013-07-15 15:35:00,59.5,51.2,29.81,NE,45,9.0,18.0,74,0.00,,,0.00,WeatherCatV1.13B119,2013-07-15 22:35:00,
2013-07-15 15:40:00,59.5,51.2,29.81,NE,45,9.0,18.0,74,0.00,,,0.00,WeatherCatV1.13B119,2013-07-15 22:40:00,
2013-07-15 15:45:00,59.5,51.2,29.81,NE,45,9.0,18.0,74,0.00,,,0.00,WeatherCatV1.13B119,2013-07-15 22:45:00,
2013-07-15 15:50:00,60.7,52.4,29.81,NE,45,8.0,13.0,74,0.00,,,0.00,WeatherCatV1.13B119,2013-07-15 22:50:00,
2013-07-15 15:55:00,60.7,52.4,29.81,NE,45,8.0,13.0,74,0.00,,,0.00,WeatherCatV1.13B119,2013-07-15 22:55:00,
2013-07-15 16:00:00,60.7,52.4,29.81,NE,45,8.0,13.0,74,0.00,,,0.00,WeatherCatV1.13B119,2013-07-15 23:00:00,
2013-07-15 16:05:00,59.6,51.3,29.80,NE,45,9.0,15.0,74,0.00,,,0.00,WeatherCatV1.13B119,2013-07-15 23:05:00,
2013-07-15 16:10:00,59.6,51.3,29.80,NE,45,9.0,15.0,74,0.00,,,0.00,WeatherCatV1.13B119,2013-07-15 23:10:00,
2013-07-15 16:15:00,59.6,51.3,29.80,NE,45,9.0,15.0,74,0.00,,,0.00,WeatherCatV1.13B119,2013-07-15 23:15:00,
2013-07-15 16:20:00,59.7,51.4,29.80,ENE,68,8.0,15.0,74,0.00,,,0.00,WeatherCatV1.13B119,2013-07-15 23:20:00,
2013-07-15 16:25:00,59.7,51.4,29.80,ENE,68,8.0,15.0,74,0.00,,,0.00,WeatherCatV1.13B119,2013-07-15 23:25:00,
2013-07-15 16:30:00,59.7,51.4,29.80,ENE,68,8.0,15.0,74,0.00,,,0.00,WeatherCatV1.13B119,2013-07-15 23:30:00,
2013-07-15 16:35:00,59.7,51.8,29.80,NE,45,8.0,15.0,75,0.00,,,0.00,WeatherCatV1.13B119,2013-07-15 23:35:00,
2013-07-15 16:40:00,59.7,51.8,29.80,NE,45,8.0,15.0,75,0.00,,,0.00,WeatherCatV1.13B119,2013-07-15 23:40:00,
2013-07-15 16:45:00,59.7,51.8,29.80,NE,45,8.0,15.0,75,0.00,,,0.00,WeatherCatV1.13B119,2013-07-15 23:45:00,
2013-07-15 16:50:00,58.4,49.8,29.80,NE,45,9.0,16.0,73,0.00,,,0.00,WeatherCatV1.13B119,2013-07-15 23:50:00,
2013-07-15 16:55:00,58.4,49.8,29.80,NE,45,9.0,16.0,73,0.00,,,0.00,WeatherCatV1.13B119,2013-07-15 23:55:00,
2013-07-15 17:00:00,58.4,49.8,29.80,NE,45,9.0,16.0,73,0.00,,,0.00,WeatherCatV1.13B119,2013-07-16 00:00:00,
2013-07-15 17:05:00,56.8,46.0,29.80,NE,45,9.0,15.0,67,0.00,,,0.00,WeatherCatV1.13B119,2013-07-16 00:05:00,
2013-07-15 17:10:00,56.8,46.0,29.80,NE,45,9.0,15.0,67,0.00,,,0.00,WeatherCatV1.13B119,2013-07-16 00:10:00,
2013-07-15 17:15:00,56.8,46.0,29.80,NE,45,9.0,15.0,67,0.00,,,0.00,WeatherCatV1.13B119,2013-07-16 00:15:00,
2013-07-15 17:20:00,56.6,45.4,29.80,NE,45,6.0,13.0,66,0.00,,,0.00,WeatherCatV1.13B119,2013-07-16 00:20:00,
2013-07-15 17:25:00,56.6,45.4,29.80,NE,45,6.0,13.0,66,0.00,,,0.00,WeatherCatV1.13B119,2013-07-16 00:25:00,
2013-07-15 17:30:00,56.6,45.4,29.80,NE,45,6.0,13.0,66,0.00,,,0.00,WeatherCatV1.13B119,2013-07-16 00:30:00,
2013-07-15 17:35:00,56.0,42.7,29.79,NE,45,5.0,14.0,61,0.00,,,0.00,WeatherCatV1.13B119,2013-07-16 00:35:00,
2013-07-15 17:40:00,56.0,42.7,29.79,NE,45,5.0,14.0,61,0.00,,,0.00,WeatherCatV1.13B119,2013-07-16 00:40:00,
2013-07-15 17:45:00,56.0,42.7,29.79,NE,45,5.0,14.0,61,0.00,,,0.00,WeatherCatV1.13B119,2013-07-16 00:45:00,
2013-07-15 17:50:00,55.8,41.7,29.79,NE,45,4.0,13.0,59,0.00,,,0.00,WeatherCatV1.13B119,2013-07-16 00:50:00,
2013-07-15 17:55:00,55.8,41.7,29.79,NE,45,4.0,13.0,59,0.00,,,0.00,WeatherCatV1.13B119,2013-07-16 00:55:00,
2013-07-15 18:00:00,55.8,41.7,29.79,NE,45,4.0,13.0,59,0.00,,,0.00,WeatherCatV1.13B119,2013-07-16 01:00:00,
2013-07-15 18:05:00,55.0,31.7,29.78,NE,45,5.0,12.0,41,0.00,,,0.00,WeatherCatV1.13B119,2013-07-16 01:05:00,
2013-07-15 18:10:00,55.0,31.7,29.78,NE,45,5.0,12.0,41,0.00,,,0.00,WeatherCatV1.13B119,2013-07-16 01:10:00,
2013-07-15 18:15:00,55.0,31.7,29.78,NE,45,5.0,12.0,41,0.00,,,0.00,WeatherCatV1.13B119,2013-07-16 01:15:00,
2013-07-15 18:20:00,54.4,19.3,29.79,NE,45,4.0,10.0,25,0.00,,,0.00,WeatherCatV1.13B119,2013-07-16 01:20:00,
2013-07-15 18:25:00,54.4,19.3,29.79,NE,45,4.0,10.0,25,0.00,,,0.00,WeatherCatV1.13B119,2013-07-16 01:25:00,
2013-07-15 18:30:00,54.4,19.3,29.79,NE,45,4.0,10.0,25,0.00,,,0.00,WeatherCatV1.13B119,2013-07-16 01:30:00,
2013-07-15 18:35:00,53.6,-15.7,29.79,NE,45,5.0,12.0,5,0.00,,,0.00,WeatherCatV1.13B119,2013-07-16 01:35:00,
2013-07-15 18:40:00,53.6,-15.7,29.79,NE,45,5.0,12.0,5,0.00,,,0.00,WeatherCatV1.13B119,2013-07-16 01:40:00,
2013-07-15 18:45:00,53.6,-15.7,29.79,NE,45,5.0,12.0,5,0.00,,,0.00,WeatherCatV1.13B119,2013-07-16 01:45:00,
2013-07-15 18:50:00,53.1,50.0,29.79,NE,45,3.0,11.0,1,0.00,,,0.00,WeatherCatV1.13B119,2013-07-16 01:50:00,
2013-07-15 18:55:00,53.1,50.0,29.79,NE,45,3.0,11.0,1,0.00,,,0.00,WeatherCatV1.13B119,2013-07-16 01:55:00,
2013-07-15 19:00:00,53.1,50.0,29.79,NE,45,3.0,11.0,1,0.00,,,0.00,WeatherCatV1.13B119,2013-07-16 02:00:00,
2013-07-15 19:05:00,52.6,50.0,29.79,East,90,3.0,10.0,1,0.00,,,0.00,WeatherCatV1.13B119,2013-07-16 02:05:00,
2013-07-15 19:10:00,52.6,50.0,29.79,East,90,3.0,10.0,1,0.00,,,0.00,WeatherCatV1.13B119,2013-07-16 02:10:00,
2013-07-15 19:15:00,52.6,50.0,29.79,East,90,3.0,10.0,1,0.00,,,0.00,WeatherCatV1.13B119,2013-07-16 02:15:00,
2013-07-15 19:20:00,52.5,50.0,29.79,ESE,112,3.0,9.0,1,0.00,,,0.00,WeatherCatV1.13B119,2013-07-16 02:20:00,
2013-07-15 19:25:00,52.5,50.0,29.79,ESE,112,3.0,9.0,1,0.00,,,0.00,WeatherCatV1.13B119,2013-07-16 02:25:00,
2013-07-15 19:30:00,52.5,50.0,29.79,ESE,112,3.0,9.0,1,0.00,,,0.00,WeatherCatV1.13B119,2013-07-16 02:30:00,
2013-07-15 19:35:00,51.9,50.0,29.79,East,90,3.0,12.0,1,0.00,,,0.00,WeatherCatV1.13B119,2013-07-16 02:35:00,
2013-07-15 19:40:00,51.9,50.0,29.79,East,90,3.0,12.0,1,0.00,,,0.00,WeatherCatV1.13B119,2013-07-16 02:40:00,
2013-07-15 19:45:00,51.9,50.0,29.79,East,90,3.0,12.0,1,0.00,,,0.00,WeatherCatV1.13B119,2013-07-16 02:45:00,
2013-07-15 19:50:00,51.5,50.0,29.79,East,90,2.0,6.0,1,0.00,,,0.00,WeatherCatV1.13B119,2013-07-16 02:50:00,
2013-07-15 19:55:00,51.5,50.0,29.79,East,90,2.0,6.0,1,0.00,,,0.00,WeatherCatV1.13B119,2013-07-16 02:55:00,
2013-07-15 20:00:00,51.5,50.0,29.79,East,90,2.0,6.0,1,0.00,,,0.00,WeatherCatV1.13B119,2013-07-16 03:00:00,
2013-07-15 20:05:00,51.1,50.0,29.79,ENE,68,3.0,7.0,1,0.00,,,0.00,WeatherCatV1.13B119,2013-07-16 03:05:00,
2013-07-15 20:10:00,51.1,50.0,29.79,ENE,68,3.0,7.0,1,0.00,,,0.00,WeatherCatV1.13B119,2013-07-16 03:10:00,
2013-07-15 20:15:00,51.1,50.0,29.79,ENE,68,3.0,7.0,1,0.00,,,0.00,WeatherCatV1.13B119,2013-07-16 03:15:00,
2013-07-15 20:20:00,50.6,50.0,29.79,ESE,112,3.0,10.0,1,0.00,,,0.00,WeatherCatV1.13B119,2013-07-16 03:20:00,
2013-07-15 20:25:00,50.6,50.0,29.79,ESE,112,3.0,10.0,1,0.00,,,0.00,WeatherCatV1.13B119,2013-07-16 03:25:00,
2013-07-15 20:30:00,50.6,50.0,29.79,ESE,112,3.0,10.0,1,0.00,,,0.00,WeatherCatV1.13B119,2013-07-16 03:30:00,
2013-07-15 20:35:00,50.1,50.0,29.79,East,90,2.0,10.0,1,0.00,,,0.00,WeatherCatV1.13B119,2013-07-16 03:35:00,
2013-07-15 20:40:00,50.1,50.0,29.79,East,90,2.0,10.0,1,0.00,,,0.00,WeatherCatV1.13B119,2013-07-16 03:40:00,
2013-07-15 20:45:00,50.1,50.0,29.79,East,90,2.0,10.0,1,0.00,,,0.00,WeatherCatV1.13B119,2013-07-16 03:45:00,
2013-07-15 20:50:00,49.6,50.0,29.79,East,90,3.0,10.0,1,0.00,,,0.00,WeatherCatV1.13B119,2013-07-16 03:50:00,
2013-07-15 20:55:00,49.6,50.0,29.79,East,90,3.0,10.0,1,0.00,,,0.00,WeatherCatV1.13B119,2013-07-16 03:55:00,
2013-07-15 21:00:00,49.6,50.0,29.79,East,90,3.0,10.0,1,0.00,,,0.00,WeatherCatV1.13B119,2013-07-16 04:00:00,
2013-07-15 21:05:00,49.3,50.0,29.79,East,90,2.0,6.0,1,0.00,,,0.00,WeatherCatV1.13B119,2013-07-16 04:05:00,
2013-07-15 21:10:00,49.3,50.0,29.79,East,90,2.0,6.0,1,0.00,,,0.00,WeatherCatV1.13B119,2013-07-16 04:10:00,
2013-07-15 21:15:00,49.3,50.0,29.79,East,90,2.0,6.0,1,0.00,,,0.00,WeatherCatV1.13B119,2013-07-16 04:15:00,
2013-07-15 21:20:00,48.9,50.0,29.80,NE,45,3.0,9.0,1,0.00,,,0.00,WeatherCatV1.13B119,2013-07-16 04:20:00,
2013-07-15 21:25:00,48.9,50.0,29.80,NE,45,3.0,9.0,1,0.00,,,0.00,WeatherCatV1.13B119,2013-07-16 04:25:00,
2013-07-15 21:30:00,48.9,50.0,29.80,NE,45,3.0,9.0,1,0.00,,,0.00,WeatherCatV1.13B119,2013-07-16 04:30:00,
2013-07-15 21:35:00,48.6,50.0,29.80,NE,45,4.0,10.0,1,0.00,,,0.00,WeatherCatV1.13B119,2013-07-16 04:35:00,
2013-07-15 21:40:00,48.6,50.0,29.80,NE,45,4.0,10.0,1,0.00,,,0.00,WeatherCatV1.13B119,2013-07-16 04:40:00,
2013-07-15 21:45:00,48.6,50.0,29.80,NE,45,4.0,10.0,1,0.00,,,0.00,WeatherCatV1.13B119,2013-07-16 04:45:00,
2013-07-15 21:50:00,48.4,50.0,29.80,NE,45,3.0,11.0,1,0.00,,,0.00,WeatherCatV1.13B119,2013-07-16 04:50:00,
2013-07-15 21:55:00,48.4,50.0,29.80,NE,45,3.0,11.0,1,0.00,,,0.00,WeatherCatV1.13B119,2013-07-16 04:55:00,
2013-07-15 22:00:00,48.4,50.0,29.80,NE,45,3.0,11.0,1,0.00,,,0.00,WeatherCatV1.13B119,2013-07-16 05:00:00,
2013-07-15 22:05:00,48.3,50.0,29.81,NE,45,4.0,11.0,1,0.00,,,0.00,WeatherCatV1.13B119,2013-07-16 05:05:00,
2013-07-15 22:10:00,48.3,50.0,29.81,NE,45,4.0,11.0,1,0.00,,,0.00,WeatherCatV1.13B119,2013-07-16 05:10:00,
2013-07-15 22:15:00,48.3,50.0,29.81,NE,45,4.0,11.0,1,0.00,,,0.00,WeatherCatV1.13B119,2013-07-16 05:15:00,
2013-07-15 22:20:00,48.2,50.0,29.80,ENE,68,3.0,9.0,1,0.00,,,0.00,WeatherCatV1.13B119,2013-07-16 05:20:00,
2013-07-15 22:25:00,48.2,50.0,29.80,ENE,68,3.0,9.0,1,0.00,,,0.00,WeatherCatV1.13B119,2013-07-16 05:25:00,
2013-07-15 22:30:00,48.2,50.0,29.80,ENE,68,3.0,9.0,1,0.00,,,0.00,WeatherCatV1.13B119,2013-07-16 05:30:00,
2013-07-15 22:35:00,48.3,50.0,29.81,NE,45,3.0,9.0,1,0.00,,,0.00,WeatherCatV1.13B119,2013-07-16 05:35:00,
2013-07-15 22:40:00,48.3,50.0,29.81,NE,45,3.0,9.0,1,0.00,,,0.00,WeatherCatV1.13B119,2013-07-16 05:40:00,
2013-07-15 22:45:00,48.3,50.0,29.81,NE,45,3.0,9.0,1,0.00,,,0.00,WeatherCatV1.13B119,2013-07-16 05:45:00,
2013-07-15 22:50:00,48.3,50.0,29.81,NE,45,4.0,10.0,1,0.00,,,0.00,WeatherCatV1.13B119,2013-07-16 05:50:00,
2013-07-15 22:55:00,48.3,50.0,29.81,NE,45,4.0,10.0,1,0.00,,,0.00,WeatherCatV1.13B119,2013-07-16 05:55:00,
2013-07-15 23:00:00,48.3,50.0,29.81,NE,45,4.0,10.0,1,0.00,,,0.00,WeatherCatV1.13B119,2013-07-16 06:00:00,
2013-07-15 23:05:00,48.4,50.0,29.81,NE,45,4.0,9.0,1,0.00,,,0.00,WeatherCatV1.13B119,2013-07-16 06:05:00,
2013-07-15 23:10:00,48.4,50.0,29.81,NE,45,4.0,9.0,1,0.00,,,0.00,WeatherCatV1.13B119,2013-07-16 06:10:00,
2013-07-15 23:15:00,48.4,50.0,29.81,NE,45,4.0,9.0,1,0.00,,,0.00,WeatherCatV1.13B119,2013-07-16 06:15:00,
2013-07-15 23:20:00,48.5,50.0,29.80,NE,45,3.0,9.0,1,0.00,,,0.00,WeatherCatV1.13B119,2013-07-16 06:20:00,
2013-07-15 23:25:00,48.5,50.0,29.80,NE,45,3.0,9.0,1,0.00,,,0.00,WeatherCatV1.13B119,2013-07-16 06:25:00,
2013-07-15 23:30:00,48.5,50.0,29.80,NE,45,3.0,9.0,1,0.00,,,0.00,WeatherCatV1.13B119,2013-07-16 06:30:00,
2013-07-15 23:35:00,48.6,50.0,29.80,NE,45,3.0,8.0,1,0.00,,,0.00,WeatherCatV1.13B119,2013-07-16 06:35:00,
2013-07-15 23:40:00,48.6,50.0,29.80,NE,45,3.0,8.0,1,0.00,,,0.00,WeatherCatV1.13B119,2013-07-16 06:40:00,
2013-07-15 23:45:00,48.6,50.0,29.80,NE,45,3.0,8.0,1,0.00,,,0.00,WeatherCatV1.13B119,2013-07-16 06:45:00,
2013-07-15 23:50:00,48.6,50.0,29.80,NE,45,4.0,12.0,1,0.00,,,0.00,WeatherCatV1.13B119,2013-07-16 06:50:00,
2013-07-15 23:55:00,48.6,50.0,29.80,NE,45,4.0,12.0,1,0.00,,,0.00,WeatherCatV1.13B119,2013-07-16 06:55:00,